createdAt,value
2022-12-15T00:02:15.430Z,21.30
2022-12-15T00:05:00.677Z,23.80
2022-12-15T00:07:45.801Z,22.10
2022-12-15T00:10:30.884Z,19.63
2022-12-15T00:13:15.909Z,23.13
2022-12-15T00:16:01.523Z,22.80
2022-12-15T00:18:46.812Z,22.10
2022-12-15T00:21:32.082Z,24.40
2022-12-15T00:24:17.170Z,23.70
2022-12-15T00:27:02.514Z,25.17
2022-12-15T00:29:47.749Z,23.67
2022-12-15T00:32:32.890Z,23.07
2022-12-15T00:35:18.405Z,19.33
2022-12-15T00:38:05.241Z,19.60
2022-12-15T00:40:32.008Z,24.67
2022-12-15T00:42:58.637Z,24.97
2022-12-15T00:45:45.275Z,28.40
2022-12-15T00:48:11.919Z,25.00
2022-12-15T00:50:53.739Z,23.30
2022-12-15T00:53:42.793Z,30.53
2022-12-15T00:56:28.960Z,24.17
2022-12-15T00:59:14.727Z,25.53
2022-12-15T01:01:59.892Z,28.70
2022-12-15T01:04:45.897Z,22.87
2022-12-15T01:07:32.255Z,21.63
2022-12-15T01:10:17.292Z,23.50
2022-12-15T01:13:03.064Z,23.60
2022-12-15T01:15:48.217Z,18.33
2022-12-15T01:18:33.545Z,26.53
2022-12-15T01:21:02.822Z,21.13
2022-12-15T01:23:31.466Z,23.47
2022-12-15T01:25:58.504Z,21.60
2022-12-15T01:28:25.361Z,22.87
2022-12-15T01:30:52.393Z,22.27
2022-12-15T01:33:19.895Z,23.47
2022-12-15T01:36:03.630Z,25.80
2022-12-15T01:38:30.400Z,26.47
2022-12-15T01:41:10.039Z,25.43
2022-12-15T01:43:39.422Z,21.90
2022-12-15T01:46:16.084Z,19.23
2022-12-15T01:48:47.403Z,25.73
2022-12-15T01:51:40.271Z,20.47
2022-12-15T01:54:11.929Z,22.63
2022-12-15T01:56:43.231Z,21.50
2022-12-15T01:59:15.166Z,22.03
2022-12-15T02:01:42.013Z,19.47
2022-12-15T02:04:08.936Z,24.67
2022-12-15T02:06:36.426Z,19.40
2022-12-15T02:09:04.329Z,25.67
2022-12-15T02:12:02.958Z,23.40
2022-12-15T02:14:37.786Z,21.60
2022-12-15T02:17:22.238Z,22.67
2022-12-15T02:19:54.855Z,27.30
2022-12-15T02:22:31.966Z,30.70
2022-12-15T02:25:34.914Z,26.10
2022-12-15T02:28:06.491Z,24.83
2022-12-15T02:31:10.068Z,24.00
2022-12-15T02:33:44.863Z,25.77
2022-12-15T02:36:23.703Z,20.70
2022-12-15T02:38:50.423Z,22.70
2022-12-15T02:41:37.485Z,24.50
2022-12-15T02:44:19.680Z,26.20
2022-12-15T02:47:14.070Z,23.07
2022-12-15T02:49:49.776Z,23.83
2022-12-15T02:52:31.273Z,28.80
2022-12-15T02:55:03.783Z,32.27
2022-12-15T02:57:52.319Z,23.33
2022-12-15T03:00:20.009Z,25.30
2022-12-15T03:02:52.905Z,24.63
2022-12-15T03:05:21.594Z,20.17
2022-12-15T03:07:53.404Z,24.13
2022-12-15T03:10:23.636Z,29.53
2022-12-15T03:12:50.727Z,22.50
2022-12-15T03:15:18.426Z,25.50
2022-12-15T03:17:45.140Z,22.67
2022-12-15T03:20:12.135Z,23.87
2022-12-15T03:22:39.815Z,23.93
2022-12-15T03:25:06.763Z,25.13
2022-12-15T03:27:33.499Z,26.73
2022-12-15T03:30:00.180Z,27.60
2022-12-15T03:32:26.886Z,25.27
2022-12-15T03:34:53.574Z,27.40
2022-12-15T03:37:20.220Z,22.90
2022-12-15T03:39:47.850Z,24.67
2022-12-15T03:42:14.482Z,24.40
2022-12-15T03:44:41.169Z,26.00
2022-12-15T03:47:07.835Z,24.77
2022-12-15T03:49:34.513Z,23.97
2022-12-15T03:52:01.216Z,18.97
2022-12-15T03:54:27.906Z,26.60
2022-12-15T03:56:54.593Z,21.13
2022-12-15T03:59:21.229Z,19.63
2022-12-15T04:01:49.251Z,25.00
2022-12-15T04:04:16.302Z,23.00
2022-12-15T04:06:42.991Z,26.13
2022-12-15T04:09:09.690Z,23.37
2022-12-15T04:11:36.437Z,25.60
2022-12-15T04:14:03.102Z,27.00
2022-12-15T04:16:29.880Z,26.67
2022-12-15T04:19:15.092Z,24.77
2022-12-15T04:21:41.760Z,24.10
2022-12-15T04:24:27.185Z,25.30
2022-12-15T04:27:12.193Z,26.20
2022-12-15T04:29:57.288Z,24.33
2022-12-15T04:32:42.365Z,29.23
2022-12-15T04:35:29.595Z,24.87
2022-12-15T04:38:14.852Z,25.90
2022-12-15T04:41:00.082Z,19.60
2022-12-15T04:43:45.294Z,27.17
2022-12-15T04:46:30.494Z,23.37
2022-12-15T04:49:15.683Z,24.90
2022-12-15T04:52:00.877Z,27.07
2022-12-15T04:54:46.139Z,29.00
2022-12-15T04:57:31.559Z,25.37
2022-12-15T05:00:16.629Z,21.50
2022-12-15T05:03:01.979Z,22.50
2022-12-15T05:05:47.211Z,30.17
2022-12-15T05:08:32.461Z,21.73
2022-12-15T05:11:18.670Z,22.07
2022-12-15T05:14:03.869Z,25.30
2022-12-15T05:16:49.177Z,27.07
2022-12-15T05:19:34.619Z,41.13
2022-12-15T05:22:19.829Z,21.23
2022-12-15T05:25:05.044Z,29.07
2022-12-15T05:27:50.275Z,27.93
2022-12-15T05:30:38.083Z,25.73
2022-12-15T05:33:05.901Z,25.97
2022-12-15T05:35:32.608Z,26.80
2022-12-15T05:38:00.535Z,22.43
2022-12-15T05:40:27.243Z,25.20
2022-12-15T05:42:53.876Z,22.53
2022-12-15T05:45:21.200Z,27.60
2022-12-15T05:47:51.819Z,23.57
2022-12-15T05:50:18.850Z,20.90
2022-12-15T05:52:49.380Z,28.17
2022-12-15T05:55:17.384Z,27.83
2022-12-15T05:57:44.077Z,26.77
2022-12-15T06:00:11.232Z,23.40
2022-12-15T06:02:38.027Z,22.70
2022-12-15T06:05:05.157Z,26.73
2022-12-15T06:07:31.852Z,22.30
2022-12-15T06:09:58.826Z,26.67
2022-12-15T06:15:15.088Z,30.83
2022-12-15T06:17:41.749Z,28.67
2022-12-15T06:20:08.729Z,25.10
2022-12-15T06:22:35.438Z,22.30
2022-12-15T06:25:02.136Z,31.03
2022-12-15T06:27:28.896Z,27.53
2022-12-15T06:29:55.575Z,25.67
2022-12-15T06:32:22.279Z,28.23
2022-12-15T06:34:49.615Z,29.17
2022-12-15T06:37:16.278Z,26.47
2022-12-15T06:39:42.961Z,21.53
2022-12-15T06:42:09.697Z,27.40
2022-12-15T06:44:36.371Z,25.60
2022-12-15T06:47:03.888Z,30.23
2022-12-15T06:49:31.972Z,25.30
2022-12-15T06:51:58.687Z,31.70
2022-12-15T06:54:25.376Z,32.37
2022-12-15T06:56:52.251Z,21.53
2022-12-15T06:59:18.912Z,30.77
2022-12-15T07:01:45.735Z,34.10
2022-12-15T07:04:12.851Z,25.57
2022-12-15T07:06:40.274Z,29.57
2022-12-15T07:09:11.782Z,25.93
2022-12-15T07:11:38.473Z,28.40
2022-12-15T07:14:05.215Z,25.43
2022-12-15T07:16:32.338Z,24.43
2022-12-15T07:18:59.177Z,26.57
2022-12-15T07:21:25.893Z,26.10
2022-12-15T07:23:55.728Z,25.17
2022-12-15T07:26:23.750Z,26.77
2022-12-15T07:28:50.629Z,29.70
2022-12-15T07:31:17.966Z,24.23
2022-12-15T07:33:44.966Z,23.50
2022-12-15T07:36:11.949Z,24.30
2022-12-15T07:38:38.716Z,37.53
2022-12-15T07:41:07.981Z,28.90
2022-12-15T07:43:35.762Z,26.83
2022-12-15T07:46:03.874Z,28.90
2022-12-15T07:48:30.803Z,29.27
2022-12-15T07:51:05.176Z,32.63
2022-12-15T07:53:36.265Z,26.77
2022-12-15T07:56:07.905Z,26.20
2022-12-15T07:58:35.599Z,27.87
2022-12-15T08:01:04.407Z,28.10
2022-12-15T08:03:31.774Z,36.00
2022-12-15T08:06:03.776Z,37.30
2022-12-15T08:08:31.987Z,38.37
2022-12-15T08:10:59.151Z,32.07
2022-12-15T08:14:00.938Z,31.90
2022-12-15T08:16:18.238Z,36.10
2022-12-15T08:18:48.951Z,34.43
2022-12-15T08:21:15.746Z,29.70
2022-12-15T08:23:42.494Z,37.93
2022-12-15T08:26:13.002Z,31.80
2022-12-15T08:28:41.031Z,32.13
2022-12-15T08:31:10.545Z,36.97
2022-12-15T08:33:38.082Z,32.37
2022-12-15T08:36:07.983Z,36.17
2022-12-15T08:38:36.079Z,29.70
2022-12-15T08:41:23.770Z,32.87
2022-12-15T08:43:51.339Z,35.10
2022-12-15T08:46:21.159Z,36.37
2022-12-15T08:48:48.574Z,35.60
2022-12-15T08:51:16.243Z,36.07
2022-12-15T08:53:43.276Z,31.97
2022-12-15T08:56:13.534Z,30.73
2022-12-15T08:58:40.522Z,32.87
2022-12-15T09:01:15.948Z,36.33
2022-12-15T09:03:45.666Z,39.20
2022-12-15T09:06:23.307Z,33.67
2022-12-15T09:08:50.717Z,34.23
2022-12-15T09:11:17.858Z,33.67
2022-12-15T09:13:44.659Z,33.43
2022-12-15T09:16:14.707Z,30.90
2022-12-15T09:18:47.796Z,30.60
2022-12-15T09:21:16.109Z,31.50
2022-12-15T09:23:43.311Z,44.87
2022-12-15T09:26:12.552Z,37.60
2022-12-15T09:28:40.011Z,32.20
2022-12-15T09:31:15.737Z,45.37
2022-12-15T09:33:43.916Z,35.20
2022-12-15T09:36:13.220Z,38.00
2022-12-15T09:38:41.706Z,34.10
2022-12-15T09:41:13.292Z,27.90
2022-12-15T09:44:02.996Z,33.07
2022-12-15T09:47:00.810Z,33.23
2022-12-15T09:49:45.756Z,31.57
2022-12-15T09:52:19.318Z,33.97
2022-12-15T09:54:46.587Z,38.53
2022-12-15T09:57:19.350Z,35.13
2022-12-15T10:00:25.836Z,32.67
2022-12-15T10:03:02.968Z,28.80
2022-12-15T10:06:14.767Z,34.53
2022-12-15T10:08:44.769Z,30.47
2022-12-15T10:11:18.828Z,32.80
2022-12-15T10:14:16.241Z,32.30
2022-12-15T10:17:11.665Z,36.13
2022-12-15T10:20:20.803Z,34.27
2022-12-15T10:22:50.353Z,30.77
2022-12-15T10:25:31.791Z,35.57
2022-12-15T10:28:37.182Z,32.70
2022-12-15T10:31:18.224Z,29.10
2022-12-15T10:33:51.688Z,32.90
2022-12-15T10:36:18.297Z,32.60
2022-12-15T10:38:50.578Z,32.10
2022-12-15T10:41:23.752Z,36.33
2022-12-15T10:43:52.095Z,31.43
2022-12-15T10:46:29.692Z,28.60
2022-12-15T10:48:59.449Z,35.73
2022-12-15T10:51:31.657Z,28.27
2022-12-15T10:54:10.680Z,31.23
2022-12-15T10:57:14.516Z,31.27
2022-12-15T10:59:41.242Z,31.43
2022-12-15T11:02:34.025Z,34.03
2022-12-15T11:05:15.886Z,35.67
2022-12-15T11:07:52.241Z,29.07
2022-12-15T11:10:48.799Z,27.27
2022-12-15T11:13:21.797Z,27.40
2022-12-15T11:15:56.654Z,28.50
2022-12-15T11:18:29.323Z,27.70
2022-12-15T11:21:13.471Z,29.63
2022-12-15T11:24:04.636Z,27.67
2022-12-15T11:26:37.173Z,30.23
2022-12-15T11:29:16.604Z,24.93
2022-12-15T11:31:45.345Z,32.13
2022-12-15T11:34:18.478Z,25.70
2022-12-15T11:37:00.313Z,29.73
2022-12-15T11:40:11.274Z,28.57
2022-12-15T11:42:53.276Z,29.53
2022-12-15T11:45:27.265Z,33.73
2022-12-15T11:48:01.808Z,35.30
2022-12-15T11:50:37.426Z,34.87
2022-12-15T11:53:15.055Z,25.90
2022-12-15T11:55:50.062Z,29.93
2022-12-15T11:58:36.055Z,26.77
2022-12-15T12:01:21.358Z,27.80
2022-12-15T12:04:19.484Z,26.83
2022-12-15T12:06:58.587Z,32.27
2022-12-15T12:09:34.116Z,34.63
2022-12-15T12:12:30.396Z,29.60
2022-12-15T12:15:15.804Z,27.67
2022-12-15T12:17:48.851Z,31.37
2022-12-15T12:20:34.953Z,36.70
2022-12-15T12:23:22.331Z,32.50
2022-12-15T12:26:11.309Z,28.67
2022-12-15T12:29:02.672Z,31.43
2022-12-15T12:31:41.334Z,31.63
2022-12-15T12:34:21.667Z,30.57
2022-12-15T12:36:50.747Z,27.57
2022-12-15T12:39:24.803Z,31.30
2022-12-15T12:42:03.919Z,31.13
2022-12-15T12:44:38.470Z,40.03
2022-12-15T12:47:26.237Z,34.93
2022-12-15T12:49:58.471Z,35.33
2022-12-15T12:52:30.187Z,35.00
2022-12-15T12:55:02.039Z,35.57
2022-12-15T12:57:28.614Z,32.27
2022-12-15T13:00:06.382Z,38.07
2022-12-15T13:02:38.049Z,33.40
2022-12-15T13:05:25.055Z,36.47
2022-12-15T13:08:05.105Z,31.87
2022-12-15T13:10:36.729Z,37.70
2022-12-15T13:13:18.563Z,33.50
2022-12-15T13:15:51.026Z,33.37
2022-12-15T13:18:19.857Z,37.90
2022-12-15T13:20:48.855Z,37.17
2022-12-15T13:23:23.642Z,39.27
2022-12-15T13:25:56.815Z,39.70
2022-12-15T13:28:39.208Z,45.57
2022-12-15T13:31:21.322Z,41.53
2022-12-15T13:33:59.473Z,35.77
2022-12-15T13:36:41.166Z,41.13
2022-12-15T13:39:16.895Z,39.93
2022-12-15T13:42:15.391Z,38.30
2022-12-15T13:44:54.470Z,32.10
2022-12-15T13:47:26.288Z,37.30
2022-12-15T13:50:08.555Z,38.90
2022-12-15T13:55:40.105Z,44.00
2022-12-15T13:58:14.786Z,35.17
2022-12-15T14:00:50.877Z,44.53
2022-12-15T14:03:17.776Z,42.30
2022-12-15T14:05:59.241Z,46.73
2022-12-15T14:08:30.310Z,39.37
2022-12-15T14:11:16.701Z,46.60
2022-12-15T14:13:54.167Z,43.23
2022-12-15T14:16:22.676Z,35.00
2022-12-15T14:19:16.247Z,39.53
2022-12-15T14:22:00.462Z,34.20
2022-12-15T14:24:40.841Z,38.93
2022-12-15T14:27:08.472Z,41.37
2022-12-15T14:29:35.189Z,41.93
2022-12-15T14:32:02.346Z,41.10
2022-12-15T14:34:36.887Z,42.00
2022-12-15T14:37:08.901Z,52.30
2022-12-15T14:39:41.052Z,46.57
2022-12-15T14:42:12.526Z,44.97
2022-12-15T14:44:48.064Z,43.77
2022-12-15T14:47:29.204Z,40.37
2022-12-15T14:49:58.512Z,44.77
2022-12-15T14:52:27.507Z,45.77
2022-12-15T14:54:59.784Z,48.93
2022-12-15T14:57:37.788Z,41.37
2022-12-15T15:00:35.584Z,38.07
2022-12-15T15:03:19.144Z,42.67
2022-12-15T15:05:59.992Z,41.30
2022-12-15T15:08:33.346Z,46.70
2022-12-15T15:11:26.847Z,43.90
2022-12-15T15:14:03.889Z,41.60
2022-12-15T15:16:31.152Z,45.53
2022-12-15T15:19:01.718Z,44.60
2022-12-15T15:21:30.577Z,43.00
2022-12-15T15:24:01.784Z,46.90
2022-12-15T15:26:29.825Z,42.80
2022-12-15T15:28:57.176Z,39.00
2022-12-15T15:31:41.512Z,46.97
2022-12-15T15:34:08.933Z,44.77
2022-12-15T15:36:38.703Z,45.83
2022-12-15T15:39:13.614Z,46.90
2022-12-15T15:41:40.330Z,44.97
2022-12-15T15:44:14.830Z,40.03
2022-12-15T15:46:52.431Z,46.00
2022-12-15T15:49:21.661Z,40.17
2022-12-15T15:51:49.005Z,44.33
2022-12-15T15:54:19.364Z,45.70
2022-12-15T15:56:46.186Z,46.07
2022-12-15T15:59:15.229Z,40.93
2022-12-15T16:01:43.508Z,47.10
2022-12-15T16:04:10.368Z,44.73
2022-12-15T16:06:39.733Z,50.33
2022-12-15T16:09:14.703Z,46.47
2022-12-15T16:11:41.561Z,45.90
2022-12-15T16:14:15.968Z,49.13
2022-12-15T16:16:43.170Z,45.33
2022-12-15T16:19:12.003Z,50.20
2022-12-15T16:21:40.380Z,48.93
2022-12-15T16:24:15.741Z,42.60
2022-12-15T16:26:47.809Z,44.47
2022-12-15T16:29:16.622Z,39.27
2022-12-15T16:31:46.722Z,37.47
2022-12-15T16:34:16.565Z,38.60
2022-12-15T16:36:43.951Z,42.07
2022-12-15T16:39:33.105Z,46.07
2022-12-15T16:42:00.309Z,58.97
2022-12-15T16:44:29.267Z,42.20
2022-12-15T16:46:57.131Z,37.23
2022-12-15T16:49:24.096Z,45.60
2022-12-15T16:51:54.865Z,39.70
2022-12-15T16:54:28.401Z,42.77
2022-12-15T16:56:57.137Z,39.50
2022-12-15T16:59:34.863Z,41.47
2022-12-15T17:02:17.169Z,46.83
2022-12-15T17:04:44.073Z,42.87
2022-12-15T17:07:19.802Z,49.43
2022-12-15T17:09:47.520Z,46.07
2022-12-15T17:12:17.542Z,44.23
2022-12-15T17:14:45.054Z,44.83
2022-12-15T17:17:16.471Z,49.70
2022-12-15T17:19:57.810Z,49.60
2022-12-15T17:22:26.874Z,43.47
2022-12-15T17:24:53.580Z,45.93
2022-12-15T17:27:28.084Z,42.60
2022-12-15T17:30:00.559Z,45.50
2022-12-15T17:32:27.285Z,43.70
2022-12-15T17:34:53.969Z,48.20
2022-12-15T17:37:20.848Z,36.00
2022-12-15T17:39:51.402Z,42.10
2022-12-15T17:42:22.103Z,49.77
2022-12-15T17:44:49.420Z,55.90
2022-12-15T17:47:20.038Z,44.93
2022-12-15T17:49:47.385Z,53.63
2022-12-15T17:52:20.319Z,46.47
2022-12-15T17:54:47.145Z,49.50
2022-12-15T17:57:13.834Z,52.60
2022-12-15T17:59:40.738Z,50.07
2022-12-15T18:02:12.067Z,50.13
2022-12-15T18:04:39.154Z,50.17
2022-12-15T18:07:06.467Z,52.47
2022-12-15T18:09:33.156Z,50.10
2022-12-15T18:11:59.873Z,46.00
2022-12-15T18:14:27.383Z,46.83
2022-12-15T18:16:54.019Z,44.83
2022-12-15T18:19:20.695Z,47.73
2022-12-15T18:21:47.469Z,46.27
2022-12-15T18:24:17.104Z,45.70
2022-12-15T18:26:44.290Z,51.53
2022-12-15T18:29:17.948Z,50.80
2022-12-15T18:31:47.075Z,50.47
2022-12-15T18:34:17.528Z,46.20
2022-12-15T18:36:44.949Z,52.23
2022-12-15T18:39:18.847Z,46.27
2022-12-15T18:41:46.156Z,46.77
2022-12-15T18:44:22.899Z,47.30
2022-12-15T18:46:49.743Z,48.47
2022-12-15T18:49:17.792Z,48.57
2022-12-15T18:51:46.336Z,40.77
2022-12-15T18:54:24.078Z,47.37
2022-12-15T18:56:51.683Z,45.97
2022-12-15T18:59:19.633Z,43.57
2022-12-15T19:01:48.125Z,46.80
2022-12-15T19:04:15.148Z,50.37
2022-12-15T19:06:42.434Z,46.77
2022-12-15T19:09:17.322Z,48.33
2022-12-15T19:12:15.803Z,51.10
2022-12-15T19:14:42.899Z,47.90
2022-12-15T19:17:42.173Z,55.07
2022-12-15T19:20:36.526Z,61.47
2022-12-15T19:23:04.277Z,50.10
2022-12-15T19:25:32.191Z,58.60
2022-12-15T19:27:59.937Z,52.10
2022-12-15T19:30:29.664Z,51.07
2022-12-15T19:32:57.470Z,50.37
2022-12-15T19:35:25.198Z,58.40
2022-12-15T19:37:55.255Z,57.03
2022-12-15T19:40:27.539Z,55.27
2022-12-15T19:42:55.332Z,55.53
2022-12-15T19:45:28.231Z,50.87
2022-12-15T19:47:55.532Z,50.03
2022-12-15T19:50:25.366Z,49.77
2022-12-15T19:53:01.229Z,46.57
2022-12-15T19:55:33.653Z,48.60
2022-12-15T19:58:06.432Z,48.17
2022-12-15T20:00:33.096Z,54.10
2022-12-15T20:03:02.040Z,58.83
2022-12-15T20:05:29.351Z,56.93
2022-12-15T20:07:56.180Z,50.23
2022-12-15T20:10:31.694Z,49.87
2022-12-15T20:13:00.569Z,56.40
2022-12-15T20:15:27.801Z,48.10
2022-12-15T20:17:58.120Z,48.20
2022-12-15T20:20:27.958Z,50.57
2022-12-15T20:22:58.961Z,53.03
2022-12-15T20:25:29.517Z,50.60
2022-12-15T20:27:57.348Z,47.43
2022-12-15T20:30:35.494Z,47.13
2022-12-15T20:33:03.965Z,52.07
2022-12-15T20:35:33.288Z,52.83
2022-12-15T20:38:02.596Z,52.53
2022-12-15T20:40:30.710Z,54.87
2022-12-15T20:42:57.624Z,51.60
2022-12-15T20:45:26.674Z,56.93
2022-12-15T20:47:55.962Z,60.07
2022-12-15T20:50:25.390Z,66.90
2022-12-15T20:52:52.714Z,96.67
2022-12-15T20:55:21.720Z,83.37
2022-12-15T20:57:49.067Z,63.73
2022-12-15T21:00:18.054Z,65.10
2022-12-15T21:02:46.354Z,61.80
2022-12-15T21:05:22.567Z,63.13
2022-12-15T21:07:49.718Z,68.43
2022-12-15T21:10:18.221Z,56.23
2022-12-15T21:12:46.721Z,57.40
2022-12-15T21:15:31.372Z,60.93
2022-12-15T21:18:25.924Z,58.60
2022-12-15T21:20:49.720Z,64.53
2022-12-15T21:23:27.409Z,62.07
2022-12-15T21:25:57.789Z,61.27
2022-12-15T21:28:25.118Z,64.70
2022-12-15T21:30:52.312Z,61.60
2022-12-15T21:33:19.092Z,62.50
2022-12-15T21:35:47.558Z,78.70
2022-12-15T21:38:30.052Z,66.00
2022-12-15T21:43:43.643Z,64.37
2022-12-15T21:46:27.579Z,61.33
2022-12-15T21:49:14.307Z,64.20
2022-12-15T21:51:55.408Z,68.20
2022-12-15T21:54:31.014Z,61.07
2022-12-15T21:56:59.028Z,65.93
2022-12-15T21:59:29.266Z,62.23
2022-12-15T22:01:56.437Z,63.00
2022-12-15T22:04:28.800Z,70.40
2022-12-15T22:06:55.576Z,69.10
2022-12-15T22:09:22.313Z,65.33
2022-12-15T22:11:51.427Z,69.87
2022-12-15T22:14:28.478Z,66.73
2022-12-15T22:16:55.817Z,67.80
2022-12-15T22:19:23.442Z,62.47
2022-12-15T22:21:50.673Z,64.80
2022-12-15T22:24:20.924Z,67.67
2022-12-15T22:26:47.885Z,65.70
2022-12-15T22:29:21.168Z,62.53
2022-12-15T22:31:49.624Z,71.50
2022-12-15T22:34:19.097Z,72.80
2022-12-15T22:36:45.883Z,66.53
2022-12-15T22:39:14.729Z,65.87
2022-12-15T22:41:43.816Z,67.00
2022-12-15T22:44:26.077Z,61.37
2022-12-15T22:46:55.421Z,61.63
2022-12-15T22:49:27.591Z,60.50
2022-12-15T22:51:55.088Z,65.20
2022-12-15T22:54:26.883Z,67.87
2022-12-15T22:57:05.408Z,67.50
2022-12-15T22:59:41.315Z,54.50
2022-12-15T23:02:09.263Z,63.57
2022-12-15T23:04:36.504Z,64.00
2022-12-15T23:07:07.536Z,60.97
2022-12-15T23:09:34.189Z,62.90
2022-12-15T23:12:00.945Z,64.27
2022-12-15T23:14:46.627Z,60.43
2022-12-15T23:17:14.227Z,63.50
2022-12-15T23:19:47.460Z,57.40
2022-12-15T23:22:14.182Z,60.83
2022-12-15T23:24:40.964Z,53.93
2022-12-15T23:27:11.725Z,51.83
2022-12-15T23:29:38.491Z,57.40
2022-12-15T23:32:05.339Z,59.43
2022-12-15T23:34:32.051Z,56.47
2022-12-15T23:36:58.661Z,62.03
2022-12-15T23:39:25.764Z,57.93
2022-12-15T23:41:52.408Z,58.80
2022-12-15T23:44:19.021Z,58.87
2022-12-15T23:46:46.842Z,59.67
2022-12-15T23:49:13.776Z,61.60
2022-12-15T23:51:40.442Z,60.77
2022-12-15T23:54:08.528Z,55.07
2022-12-15T23:56:35.551Z,61.50
2022-12-15T23:59:02.315Z,64.40
